createdAt,value
2023-05-01T00:01:57.461Z,84.27
2023-05-01T00:04:25.511Z,86.57
2023-05-01T00:06:53.742Z,88.83
2023-05-01T00:09:21.866Z,90.37
2023-05-01T00:11:49.938Z,97.90
2023-05-01T00:14:18.027Z,96.20
2023-05-01T00:16:46.568Z,85.17
2023-05-01T00:19:18.492Z,90.63
2023-05-01T00:21:47.970Z,85.70
2023-05-01T00:24:17.069Z,87.67
2023-05-01T00:26:45.495Z,92.77
2023-05-01T00:29:13.889Z,93.40
2023-05-01T00:31:42.776Z,91.00
2023-05-01T00:34:11.384Z,90.93
2023-05-01T00:36:41.101Z,94.00
2023-05-01T00:39:09.276Z,95.50
2023-05-01T00:41:37.597Z,82.87
2023-05-01T00:44:05.785Z,90.37
2023-05-01T00:46:38.019Z,88.13
2023-05-01T00:49:06.132Z,86.97
2023-05-01T00:51:34.984Z,82.53
2023-05-01T00:54:04.752Z,77.03
2023-05-01T00:56:33.095Z,62.00
2023-05-01T00:59:01.237Z,63.83
2023-05-01T01:01:29.722Z,62.10
2023-05-01T01:03:57.807Z,73.00
2023-05-01T01:06:46.422Z,63.67
2023-05-01T01:09:24.612Z,64.43
2023-05-01T01:12:03.312Z,63.63
2023-05-01T01:14:34.753Z,70.10
2023-05-01T01:17:13.717Z,60.13
2023-05-01T01:20:09.007Z,68.00
2023-05-01T01:22:39.534Z,76.43
2023-05-01T01:25:37.744Z,70.43
2023-05-01T01:28:18.922Z,64.20
2023-05-01T01:31:12.103Z,64.13
2023-05-01T01:34:09.430Z,58.63
2023-05-01T01:36:44.082Z,56.93
2023-05-01T01:39:24.536Z,66.60
2023-05-01T01:41:54.581Z,60.93
2023-05-01T01:44:29.075Z,67.77
2023-05-01T01:47:00.345Z,59.10
2023-05-01T01:49:32.528Z,56.23
2023-05-01T01:52:04.035Z,61.33
2023-05-01T01:54:36.454Z,64.13
2023-05-01T01:57:06.064Z,58.80
2023-05-01T01:59:36.320Z,53.97
2023-05-01T02:02:05.966Z,62.93
2023-05-01T02:04:37.441Z,50.83
2023-05-01T02:07:07.652Z,50.60
2023-05-01T02:09:36.499Z,52.90
2023-05-01T02:12:06.172Z,45.27
2023-05-01T02:14:35.085Z,52.83
2023-05-01T02:17:04.057Z,47.33
2023-05-01T02:19:35.590Z,45.53
2023-05-01T02:22:06.087Z,46.40
2023-05-01T02:24:35.440Z,46.90
2023-05-01T02:27:09.540Z,41.60
2023-05-01T02:29:37.836Z,43.43
2023-05-01T02:32:06.381Z,42.63
2023-05-01T02:34:37.395Z,40.57
2023-05-01T02:37:07.365Z,36.77
2023-05-01T02:39:35.877Z,40.30
2023-05-01T02:42:05.832Z,35.47
2023-05-01T02:44:40.807Z,35.97
2023-05-01T02:47:11.873Z,37.60
2023-05-01T02:49:43.836Z,37.13
2023-05-01T02:52:13.682Z,38.10
2023-05-01T02:54:41.861Z,38.53
2023-05-01T02:57:11.456Z,38.00
2023-05-01T02:59:40.381Z,38.23
2023-05-01T03:02:08.491Z,35.30
2023-05-01T03:04:36.833Z,37.60
2023-05-01T03:07:06.645Z,40.17
2023-05-01T03:09:34.706Z,37.97
2023-05-01T03:12:03.832Z,36.40
2023-05-01T03:14:31.867Z,35.63
2023-05-01T03:16:59.932Z,38.30
2023-05-01T03:19:28.163Z,40.77
2023-05-01T03:21:56.182Z,35.30
2023-05-01T03:24:25.665Z,37.37
2023-05-01T03:26:53.678Z,37.77
2023-05-01T03:29:21.725Z,37.40
2023-05-01T03:31:49.873Z,36.27
2023-05-01T03:34:19.288Z,35.07
2023-05-01T03:36:47.258Z,29.10
2023-05-01T03:39:15.398Z,35.60
2023-05-01T03:41:44.784Z,31.77
2023-05-01T03:44:12.893Z,31.17
2023-05-01T03:46:41.367Z,31.23
2023-05-01T03:49:09.434Z,30.67
2023-05-01T03:51:37.480Z,32.90
2023-05-01T03:54:05.550Z,31.37
2023-05-01T03:56:35.669Z,32.23
2023-05-01T03:59:05.247Z,35.07
2023-05-01T04:01:33.638Z,32.83
2023-05-01T04:04:02.323Z,32.53
2023-05-01T04:06:30.983Z,34.67
2023-05-01T04:08:59.016Z,32.37
2023-05-01T04:11:27.214Z,36.40
2023-05-01T04:13:55.227Z,32.83
2023-05-01T04:16:24.778Z,31.63
2023-05-01T04:18:52.973Z,30.93
2023-05-01T04:21:20.984Z,33.87
2023-05-01T04:23:49.006Z,32.47
2023-05-01T04:26:17.364Z,32.80
2023-05-01T04:28:45.426Z,31.57
2023-05-01T04:31:13.749Z,33.07
2023-05-01T04:33:43.194Z,33.37
2023-05-01T04:36:11.481Z,42.90
2023-05-01T04:38:39.554Z,38.27
2023-05-01T04:41:07.619Z,35.67
2023-05-01T04:43:35.787Z,39.73
2023-05-01T04:46:04.834Z,41.33
2023-05-01T04:48:32.873Z,44.73
2023-05-01T04:51:03.660Z,47.73
2023-05-01T04:53:32.045Z,49.00
2023-05-01T04:56:00.148Z,55.67
2023-05-01T04:58:28.166Z,50.77
2023-05-01T05:00:56.569Z,55.77
2023-05-01T05:03:24.709Z,51.93
2023-05-01T05:05:54.318Z,54.97
2023-05-01T05:08:23.735Z,59.33
2023-05-01T05:10:57.331Z,59.50
2023-05-01T05:13:25.373Z,59.77
2023-05-01T05:15:53.606Z,62.37
2023-05-01T05:18:21.811Z,64.23
2023-05-01T05:20:49.867Z,63.93
2023-05-01T05:23:17.894Z,69.77
2023-05-01T05:25:47.287Z,77.43
2023-05-01T05:28:15.285Z,76.10
2023-05-01T05:30:43.314Z,80.80
2023-05-01T05:33:11.442Z,82.83
2023-05-01T05:35:39.489Z,75.30
2023-05-01T05:38:07.518Z,89.17
2023-05-01T05:40:35.598Z,89.40
2023-05-01T05:43:05.063Z,96.73
2023-05-01T05:45:35.664Z,89.40
2023-05-01T05:48:03.874Z,91.60
2023-05-01T05:50:31.900Z,106.30
2023-05-01T05:52:59.910Z,101.13
2023-05-01T05:55:28.103Z,120.53
2023-05-01T05:57:56.170Z,132.97
2023-05-01T06:00:25.773Z,127.87
2023-05-01T06:02:53.860Z,129.93
2023-05-01T06:05:22.380Z,137.17
2023-05-01T06:07:51.176Z,139.30
2023-05-01T06:10:19.382Z,144.00
2023-05-01T06:12:48.604Z,137.73
2023-05-01T06:15:29.548Z,150.70
2023-05-01T06:17:58.346Z,135.77
2023-05-01T06:20:26.562Z,133.67
2023-05-01T06:22:54.715Z,138.40
2023-05-01T06:25:24.000Z,149.90
2023-05-01T06:27:52.131Z,150.60
2023-05-01T06:30:21.217Z,157.00
2023-05-01T06:32:50.833Z,164.57
2023-05-01T06:35:18.984Z,161.03
2023-05-01T06:37:47.104Z,158.70
2023-05-01T06:40:15.367Z,164.73
2023-05-01T06:42:43.471Z,174.53
2023-05-01T06:45:11.628Z,168.93
2023-05-01T06:47:39.797Z,178.13
2023-05-01T06:50:11.148Z,168.93
2023-05-01T06:52:39.231Z,168.83
2023-05-01T06:55:07.778Z,183.80
2023-05-01T06:57:35.852Z,198.07
2023-05-01T07:00:04.527Z,111.50
2023-05-01T07:02:32.582Z,107.40
2023-05-01T07:05:01.144Z,103.33
2023-05-01T07:07:30.880Z,104.13
2023-05-01T07:09:59.475Z,111.67
2023-05-01T07:12:27.781Z,121.50
2023-05-01T07:14:56.920Z,134.60
2023-05-01T07:17:25.115Z,126.00
2023-05-01T07:19:53.333Z,135.30
2023-05-01T07:22:21.384Z,135.93
2023-05-01T07:24:50.777Z,121.90
2023-05-01T07:27:18.868Z,147.83
2023-05-01T07:29:46.881Z,143.60
2023-05-01T07:32:15.255Z,123.00
2023-05-01T07:34:43.306Z,137.53
2023-05-01T07:37:11.376Z,146.87
2023-05-01T07:39:39.391Z,158.17
2023-05-01T07:42:08.917Z,185.60
2023-05-01T07:44:37.115Z,185.27
2023-05-01T07:47:05.748Z,192.73
2023-05-01T07:49:37.854Z,197.80
2023-05-01T07:52:07.153Z,195.73
2023-05-01T07:54:35.188Z,191.77
2023-05-01T07:57:04.457Z,198.50
2023-05-01T07:59:33.862Z,201.43
2023-05-01T08:02:02.149Z,214.73
2023-05-01T08:04:31.034Z,163.98
2023-05-01T08:06:59.230Z,187.77
2023-05-01T08:09:27.298Z,188.52
2023-05-01T08:11:55.412Z,203.18
2023-05-01T08:14:23.548Z,214.52
2023-05-01T08:16:55.345Z,190.85
2023-05-01T08:19:24.412Z,221.82
2023-05-01T08:21:52.404Z,199.65
2023-05-01T08:24:21.733Z,255.45
2023-05-01T08:26:49.801Z,209.40
2023-05-01T08:29:17.922Z,254.95
2023-05-01T08:31:46.763Z,231.18
2023-05-01T08:34:17.380Z,220.82
2023-05-01T08:36:45.784Z,203.25
2023-05-01T08:39:15.283Z,238.02
2023-05-01T08:41:46.619Z,247.90
2023-05-01T08:44:16.723Z,273.92
2023-05-01T08:46:49.624Z,195.27
2023-05-01T08:49:19.815Z,206.75
2023-05-01T08:51:48.556Z,236.18
2023-05-01T08:54:17.775Z,230.20
2023-05-01T08:56:47.858Z,280.17
2023-05-01T08:59:17.231Z,194.27
2023-05-01T09:01:47.207Z,138.32
2023-05-01T09:04:17.453Z,88.18
2023-05-01T09:06:47.013Z,105.68
2023-05-01T09:09:15.068Z,84.20
2023-05-01T09:11:45.936Z,108.13
2023-05-01T09:14:14.034Z,214.70
2023-05-01T09:16:42.382Z,206.15
2023-05-01T09:19:11.271Z,184.93
2023-05-01T09:21:39.568Z,246.48
2023-05-01T09:24:09.087Z,267.98
2023-05-01T09:26:41.929Z,273.50
2023-05-01T09:29:10.350Z,283.27
2023-05-01T09:31:38.811Z,277.90
2023-05-01T09:34:08.406Z,283.83
2023-05-01T09:36:37.544Z,295.70
2023-05-01T09:39:05.681Z,291.55
2023-05-01T09:41:35.886Z,295.58
2023-05-01T09:44:04.393Z,301.77
2023-05-01T09:46:42.751Z,301.55
2023-05-01T09:49:11.113Z,308.90
2023-05-01T09:51:39.578Z,326.48
2023-05-01T09:54:19.597Z,319.25
2023-05-01T09:56:49.916Z,316.67
2023-05-01T09:59:20.338Z,331.25
2023-05-01T10:01:50.538Z,329.80
2023-05-01T10:04:19.087Z,326.27
2023-05-01T10:06:47.338Z,336.30
2023-05-01T10:09:28.775Z,335.05
2023-05-01T10:11:59.418Z,333.65
2023-05-01T10:14:29.801Z,341.15
2023-05-01T10:16:58.307Z,349.35
2023-05-01T10:19:26.984Z,347.25
2023-05-01T10:21:55.113Z,355.42
2023-05-01T10:24:23.587Z,348.95
2023-05-01T10:26:53.732Z,338.33
2023-05-01T10:29:25.380Z,347.45
2023-05-01T10:31:53.499Z,327.33
2023-05-01T10:34:26.227Z,348.52
2023-05-01T10:37:01.634Z,346.80
2023-05-01T10:39:33.698Z,306.85
2023-05-01T10:42:03.740Z,295.58
2023-05-01T10:44:35.264Z,293.17
2023-05-01T10:47:37.850Z,283.33
2023-05-01T10:50:07.123Z,291.60
2023-05-01T10:53:08.613Z,310.83
2023-05-01T10:55:37.345Z,298.45
2023-05-01T10:58:05.421Z,305.85
2023-05-01T11:00:38.025Z,324.50
2023-05-01T11:03:37.162Z,359.48
2023-05-01T11:06:09.168Z,328.25
2023-05-01T11:08:38.792Z,359.00
2023-05-01T11:11:44.517Z,342.15
2023-05-01T11:14:12.530Z,353.10
2023-05-01T11:16:49.907Z,374.23
2023-05-01T11:19:48.696Z,357.52
2023-05-01T11:22:17.103Z,363.60
2023-05-01T11:24:45.261Z,373.13
2023-05-01T11:27:18.363Z,378.52
2023-05-01T11:29:48.494Z,394.38
2023-05-01T11:32:20.871Z,398.65
2023-05-01T11:34:51.132Z,395.02
2023-05-01T11:37:19.371Z,405.17
2023-05-01T11:39:52.184Z,427.48
2023-05-01T11:42:23.438Z,428.13
2023-05-01T11:45:07.882Z,448.95
2023-05-01T11:47:37.516Z,452.25
2023-05-01T11:50:06.488Z,453.90
2023-05-01T11:52:44.616Z,477.45
2023-05-01T11:55:12.894Z,482.52
2023-05-01T11:57:52.748Z,506.60
2023-05-01T12:00:29.784Z,505.95
2023-05-01T12:03:01.067Z,510.42
2023-05-01T12:05:31.085Z,521.53
2023-05-01T12:08:09.652Z,514.67
2023-05-01T12:10:38.716Z,507.63
2023-05-01T12:13:08.248Z,512.17
2023-05-01T12:15:38.204Z,509.50
2023-05-01T12:18:07.994Z,515.30
2023-05-01T12:20:37.798Z,505.33
2023-05-01T12:23:06.737Z,497.45
2023-05-01T12:25:35.596Z,491.15
2023-05-01T12:28:05.167Z,496.90
2023-05-01T12:30:33.510Z,500.65
2023-05-01T12:33:09.042Z,494.13
2023-05-01T12:35:39.262Z,497.88
2023-05-01T12:38:15.306Z,491.73
2023-05-01T12:40:53.779Z,492.75
2023-05-01T12:43:24.844Z,498.10
2023-05-01T12:45:54.468Z,519.20
2023-05-01T12:48:22.830Z,525.90
2023-05-01T12:50:54.954Z,530.78
2023-05-01T12:53:23.885Z,548.47
2023-05-01T12:55:53.560Z,539.25
2023-05-01T12:58:21.909Z,555.90
2023-05-01T13:00:51.310Z,568.70
2023-05-01T13:03:25.162Z,569.60
2023-05-01T13:05:57.511Z,598.33
2023-05-01T13:08:30.785Z,588.63
2023-05-01T13:11:00.304Z,593.78
2023-05-01T13:13:29.582Z,579.75
2023-05-01T13:16:09.054Z,604.72
2023-05-01T13:18:44.807Z,599.80
2023-05-01T13:21:16.301Z,591.25
2023-05-01T13:23:53.212Z,598.47
2023-05-01T13:26:27.470Z,585.45
2023-05-01T13:28:55.801Z,592.80
2023-05-01T13:31:23.940Z,587.58
2023-05-01T13:33:54.219Z,586.28
2023-05-01T13:36:26.582Z,593.20
2023-05-01T13:38:57.242Z,579.50
2023-05-01T13:41:26.837Z,578.40
2023-05-01T13:43:57.171Z,570.70
2023-05-01T13:46:27.350Z,576.50
2023-05-01T13:48:56.309Z,575.05
2023-05-01T13:51:27.200Z,578.28
2023-05-01T13:53:56.754Z,571.10
2023-05-01T13:56:24.870Z,584.55
2023-05-01T13:58:53.195Z,594.85
2023-05-01T14:01:23.365Z,593.63
2023-05-01T14:03:51.731Z,596.78
2023-05-01T14:06:23.074Z,616.05
2023-05-01T14:08:54.238Z,615.88
2023-05-01T14:11:22.246Z,609.20
2023-05-01T14:13:53.602Z,616.15
2023-05-01T14:16:27.137Z,612.10
2023-05-01T14:18:57.241Z,601.03
2023-05-01T14:21:27.935Z,589.20
2023-05-01T14:23:58.275Z,589.47
2023-05-01T14:26:26.782Z,589.42
2023-05-01T14:28:55.770Z,575.38
2023-05-01T14:31:28.464Z,571.03
2023-05-01T14:33:58.602Z,565.22
2023-05-01T14:36:31.060Z,562.95
2023-05-01T14:39:01.501Z,561.25
2023-05-01T14:41:30.173Z,565.53
2023-05-01T14:43:58.566Z,564.80
2023-05-01T14:46:31.567Z,557.97
2023-05-01T14:49:00.116Z,555.50
2023-05-01T14:51:28.891Z,557.03
2023-05-01T14:53:56.933Z,557.33
2023-05-01T14:56:26.430Z,555.75
2023-05-01T14:58:54.563Z,553.60
2023-05-01T15:01:22.701Z,554.95
2023-05-01T15:03:50.976Z,543.95
2023-05-01T15:06:19.119Z,535.72
2023-05-01T15:08:47.337Z,546.20
2023-05-01T15:11:16.658Z,523.38
2023-05-01T15:13:46.227Z,531.95
2023-05-01T15:16:14.462Z,540.08
2023-05-01T15:18:42.545Z,539.50
2023-05-01T15:21:10.869Z,537.33
2023-05-01T15:23:38.821Z,543.28
2023-05-01T15:26:07.129Z,549.95
2023-05-01T15:28:35.146Z,550.72
2023-05-01T15:31:04.641Z,560.92
2023-05-01T15:33:32.714Z,562.38
2023-05-01T15:36:00.827Z,572.28
2023-05-01T15:38:30.172Z,574.35
2023-05-01T15:40:58.336Z,581.22
2023-05-01T15:43:26.538Z,579.03
2023-05-01T15:45:57.882Z,586.80
2023-05-01T15:48:27.540Z,585.35
2023-05-01T15:50:55.578Z,587.10
2023-05-01T15:53:24.459Z,583.90
2023-05-01T15:55:53.318Z,591.72
2023-05-01T15:58:24.899Z,589.15
2023-05-01T16:00:53.149Z,580.03
2023-05-01T16:03:21.666Z,573.70
2023-05-01T16:05:51.410Z,589.53
2023-05-01T16:08:19.819Z,585.22
2023-05-01T16:10:47.808Z,578.05
2023-05-01T16:13:15.888Z,578.53
2023-05-01T16:15:43.973Z,573.00
2023-05-01T16:18:20.358Z,578.15
2023-05-01T16:20:48.385Z,579.15
2023-05-01T16:23:17.881Z,581.33
2023-05-01T16:25:46.050Z,572.85
2023-05-01T16:28:15.519Z,577.97
2023-05-01T16:30:43.779Z,578.03
2023-05-01T16:33:18.393Z,596.15
2023-05-01T16:35:49.587Z,603.83
2023-05-01T16:38:19.932Z,609.50
2023-05-01T16:40:49.137Z,618.95
2023-05-01T16:43:17.400Z,621.50
2023-05-01T16:45:46.985Z,631.35
2023-05-01T16:48:21.682Z,623.83
2023-05-01T16:50:49.845Z,627.25
2023-05-01T16:53:19.303Z,637.60
2023-05-01T16:55:47.383Z,634.33
2023-05-01T16:58:15.389Z,626.10
2023-05-01T17:00:43.813Z,620.70
2023-05-01T17:03:12.015Z,613.05
2023-05-01T17:05:40.178Z,604.40
2023-05-01T17:08:08.319Z,604.40
2023-05-01T17:10:38.502Z,605.85
2023-05-01T17:13:07.760Z,591.20
2023-05-01T17:15:35.746Z,586.90
2023-05-01T17:18:03.794Z,582.08
2023-05-01T17:20:31.990Z,559.67
2023-05-01T17:23:00.059Z,545.45
2023-05-01T17:25:28.132Z,569.05
2023-05-01T17:27:59.100Z,529.45
2023-05-01T17:30:27.210Z,529.15
2023-05-01T17:32:55.284Z,516.08
2023-05-01T17:35:23.467Z,514.05
2023-05-01T17:37:51.745Z,509.75
2023-05-01T17:40:20.019Z,512.55
2023-05-01T17:42:48.185Z,500.00
2023-05-01T17:45:17.691Z,508.58
2023-05-01T17:47:46.597Z,505.63
2023-05-01T17:50:15.569Z,499.42
2023-05-01T17:52:45.035Z,491.23
2023-05-01T17:55:14.382Z,481.75
2023-05-01T17:57:44.590Z,476.90
2023-05-01T18:00:13.621Z,456.55
2023-05-01T18:02:44.942Z,464.98
2023-05-01T18:05:13.590Z,467.83
2023-05-01T18:07:42.287Z,460.52
2023-05-01T18:10:14.022Z,466.83
2023-05-01T18:12:43.498Z,467.85
2023-05-01T18:15:14.701Z,453.60
2023-05-01T18:17:46.959Z,448.10
2023-05-01T18:20:15.030Z,436.20
2023-05-01T18:22:43.117Z,444.23
2023-05-01T18:25:11.343Z,439.33
2023-05-01T18:27:41.817Z,435.38
2023-05-01T18:30:11.522Z,425.55
2023-05-01T18:32:46.947Z,414.83
2023-05-01T18:35:18.586Z,412.85
2023-05-01T18:37:47.236Z,413.50
2023-05-01T18:40:15.496Z,402.83
2023-05-01T18:42:43.825Z,400.67
2023-05-01T18:45:13.077Z,392.23
2023-05-01T18:47:41.383Z,391.97
2023-05-01T18:50:11.712Z,388.47
2023-05-01T18:52:41.847Z,391.27
2023-05-01T18:55:11.338Z,386.97
2023-05-01T18:57:41.733Z,388.53
2023-05-01T19:00:11.258Z,383.23
2023-05-01T19:02:39.564Z,387.30
2023-05-01T19:05:08.739Z,388.37
2023-05-01T19:07:37.009Z,379.20
2023-05-01T19:10:07.504Z,376.93
2023-05-01T19:12:35.778Z,375.30
2023-05-01T19:15:03.904Z,379.30
2023-05-01T19:17:32.072Z,376.70
2023-05-01T19:20:02.413Z,373.63
2023-05-01T19:22:30.636Z,377.93
2023-05-01T19:25:00.141Z,373.30
2023-05-01T19:27:29.824Z,373.30
2023-05-01T19:30:00.896Z,370.67
2023-05-01T19:32:29.542Z,371.43
2023-05-01T19:34:57.663Z,365.37
2023-05-01T19:37:27.359Z,365.03
2023-05-01T19:39:55.445Z,364.33
2023-05-01T19:42:23.531Z,361.37
2023-05-01T19:44:53.085Z,364.77
2023-05-01T19:47:21.378Z,364.33
2023-05-01T19:49:49.437Z,368.97
2023-05-01T19:52:17.601Z,369.20
2023-05-01T19:54:45.762Z,363.37
2023-05-01T19:57:16.829Z,366.17
2023-05-01T19:59:45.014Z,362.63
2023-05-01T20:02:15.043Z,358.70
2023-05-01T20:04:43.245Z,361.93
2023-05-01T20:07:11.390Z,359.30
2023-05-01T20:09:39.497Z,352.43
2023-05-01T20:12:07.536Z,357.03
2023-05-01T20:14:35.616Z,359.13
2023-05-01T20:17:07.403Z,354.93
2023-05-01T20:19:39.631Z,351.30
2023-05-01T20:22:08.110Z,344.13
2023-05-01T20:24:36.169Z,348.80
2023-05-01T20:27:05.094Z,345.67
2023-05-01T20:29:33.478Z,351.93
2023-05-01T20:32:01.568Z,348.40
2023-05-01T20:34:29.656Z,347.20
2023-05-01T20:36:59.322Z,364.80
2023-05-01T20:39:27.440Z,344.43
2023-05-01T20:41:56.146Z,346.43
2023-05-01T20:44:24.198Z,352.73
2023-05-01T20:46:52.719Z,355.87
2023-05-01T20:49:21.426Z,343.03
2023-05-01T20:51:49.438Z,356.90
2023-05-01T20:54:18.791Z,359.57
2023-05-01T20:56:46.828Z,365.23
2023-05-01T20:59:14.934Z,351.73
2023-05-01T21:01:43.080Z,358.77
2023-05-01T21:04:11.205Z,352.77
2023-05-01T21:06:39.330Z,369.30
2023-05-01T21:09:08.618Z,353.97
2023-05-01T21:11:40.577Z,350.67
2023-05-01T21:14:08.775Z,352.80
2023-05-01T21:16:37.593Z,356.90
2023-05-01T21:19:06.852Z,355.17
2023-05-01T21:21:37.145Z,356.47
2023-05-01T21:24:07.334Z,352.07
2023-05-01T21:26:36.944Z,353.70
2023-05-01T21:29:04.940Z,349.60
2023-05-01T21:31:33.423Z,351.70
2023-05-01T21:34:03.416Z,348.67
2023-05-01T21:36:32.075Z,350.57
2023-05-01T21:39:01.794Z,347.10
2023-05-01T21:41:29.890Z,347.03
2023-05-01T21:43:59.294Z,352.57
2023-05-01T21:46:27.369Z,349.00
2023-05-01T21:48:55.452Z,367.77
2023-05-01T21:51:28.383Z,346.90
2023-05-01T21:53:56.497Z,357.43
2023-05-01T21:56:24.616Z,359.13
2023-05-01T21:58:52.667Z,349.07
2023-05-01T22:01:23.287Z,352.13
2023-05-01T22:03:51.537Z,351.30
2023-05-01T22:06:19.736Z,351.07
2023-05-01T22:08:47.864Z,345.93
2023-05-01T22:11:15.893Z,348.47
2023-05-01T22:13:43.928Z,343.07
2023-05-01T22:16:13.853Z,346.80
2023-05-01T22:18:43.236Z,346.07
2023-05-01T22:21:11.286Z,350.43
2023-05-01T22:23:39.319Z,346.40
2023-05-01T22:26:07.422Z,347.27
2023-05-01T22:28:35.412Z,344.20
2023-05-01T22:31:03.449Z,346.03
2023-05-01T22:33:31.906Z,346.00
2023-05-01T22:36:01.302Z,342.03
2023-05-01T22:38:29.284Z,341.83
2023-05-01T22:40:57.304Z,342.87
2023-05-01T22:43:25.444Z,349.70
2023-05-01T22:45:53.568Z,349.47
2023-05-01T22:48:21.712Z,345.67
2023-05-01T22:50:49.743Z,346.23
2023-05-01T22:53:19.100Z,346.83
2023-05-01T22:55:47.112Z,345.40
2023-05-01T22:58:15.109Z,341.53
2023-05-01T23:00:43.226Z,342.13
2023-05-01T23:03:11.821Z,336.77
2023-05-01T23:05:39.904Z,337.10
2023-05-01T23:08:07.955Z,334.17
2023-05-01T23:10:42.538Z,333.40
2023-05-01T23:13:18.748Z,340.13
2023-05-01T23:15:49.882Z,341.83
2023-05-01T23:18:23.600Z,335.97
2023-05-01T23:20:52.836Z,341.00
2023-05-01T23:23:22.094Z,336.97
2023-05-01T23:25:52.781Z,341.97
2023-05-01T23:28:24.657Z,338.07
2023-05-01T23:30:56.523Z,342.77
2023-05-01T23:33:26.017Z,340.87
2023-05-01T23:35:54.143Z,342.40
2023-05-01T23:38:22.207Z,341.33
2023-05-01T23:40:51.127Z,343.47
2023-05-01T23:43:21.231Z,341.33
2023-05-01T23:45:49.596Z,336.63
2023-05-01T23:48:17.642Z,336.83
2023-05-01T23:50:45.730Z,339.73
2023-05-01T23:53:13.763Z,337.77
2023-05-01T23:55:44.655Z,340.13
2023-05-01T23:58:14.109Z,339.10
